Time;durP1;ratioP1;P1;durP2;ratioP2;P2;SDS_P1;SDS_P2;PMS_P1;PMS_P2;Temp;Humidity;BMP_temperature;BMP_pressure;BME280_temperature;BME280_humidity;BME280_pressure;Samples;Min_cycle;Max_cycle;Signal;HPM_P1;HPM_P2
2022/05/12 00:01:06;;;;;;;8.32;4.30;;;;;;;11.84;38.13;98475.94;4991242;28;20459;-39
2022/05/12 00:03:32;;;;;;;12.93;4.63;;;;;;;11.83;38.19;98484.66;4978630;28;20514;-40
2022/05/12 00:05:57;;;;;;;11.98;5.43;;;;;;;11.81;37.31;98486.53;4992639;28;20038;-39
2022/05/12 00:08:23;;;;;;;12.40;4.47;;;;;;;11.78;37.79;98481.50;4991502;28;20034;-41
2022/05/12 00:10:49;;;;;;;11.75;4.30;;;;;;;11.79;37.42;98482.34;4990839;28;20572;-40
2022/05/12 00:13:15;;;;;;;14.95;4.57;;;;;;;11.79;37.51;98484.94;4990716;28;20050;-39
2022/05/12 00:15:40;;;;;;;8.30;4.00;;;;;;;11.78;37.63;98480.66;4991070;28;20046;-40
2022/05/12 00:18:08;;;;;;;12.63;4.47;;;;;;;11.78;38.50;98483.25;4986100;28;20699;-40
2022/05/12 00:20:37;;;;;;;9.57;4.00;;;;;;;11.77;38.58;98472.03;4973310;28;20480;-40
2022/05/12 00:23:17;;;;;;;11.57;4.25;;;;;;;11.78;37.96;98471.06;4990778;28;20042;-43
2022/05/12 00:25:45;;;;;;;12.55;4.78;;;;;;;11.77;37.79;98481.59;4987293;28;20422;-39
2022/05/12 00:28:11;;;;;;;18.83;5.47;;;;;;;11.72;37.38;98474.00;4990107;28;20073;-39
2022/05/12 00:30:38;;;;;;;11.00;4.53;;;;;;;11.72;37.68;98475.78;4991077;28;20096;-40
2022/05/12 00:33:05;;;;;;;12.60;3.70;;;;;;;11.70;37.76;98477.63;4991671;28;20038;-40
2022/05/12 00:35:32;;;;;;;10.50;4.88;;;;;;;11.63;37.45;98471.94;4989590;28;20050;-39
2022/05/12 00:37:58;;;;;;;10.38;4.45;;;;;;;11.63;37.37;98471.94;4980915;28;20532;-40
2022/05/12 00:40:24;;;;;;;8.82;4.30;;;;;;;11.66;37.98;98469.19;4991805;28;20092;-39
2022/05/12 00:43:00;;;;;;;17.10;4.50;;;;;;;11.73;37.71;98465.31;4989864;28;20049;-39
2022/05/12 00:45:28;;;;;;;8.90;4.10;;;;;;;11.72;37.71;98455.78;4991271;28;20081;-39
2022/05/12 00:47:54;;;;;;;12.50;4.20;;;;;;;11.78;37.25;98463.25;4991711;28;20034;-39
2022/05/12 00:50:22;;;;;;;13.27;3.72;;;;;;;11.80;37.19;98464.03;4991576;28;20088;-41
2022/05/12 00:52:48;;;;;;;10.73;4.25;;;;;;;11.69;36.96;98442.94;4970886;28;20433;-40
2022/05/12 00:55:17;;;;;;;8.65;3.88;;;;;;;11.85;36.68;98461.16;4980989;28;20050;-39
2022/05/12 00:57:51;;;;;;;8.73;4.15;;;;;;;11.88;37.19;98458.34;4987013;28;20098;-39
2022/05/12 01:00:18;;;;;;;9.10;4.35;;;;;;;11.87;36.80;98454.94;4979579;28;20042;-39
2022/05/12 01:02:47;;;;;;;6.60;3.78;;;;;;;11.84;36.27;98460.31;4991473;28;20042;-40
2022/05/12 01:05:14;;;;;;;9.57;3.85;;;;;;;11.80;36.36;98448.41;4973552;28;20093;-39
2022/05/12 01:07:40;;;;;;;12.13;4.40;;;;;;;11.79;36.97;98446.72;4973927;28;20042;-40
2022/05/12 01:10:08;;;;;;;10.32;4.45;;;;;;;11.78;37.04;98439.84;4987147;28;20097;-39
2022/05/12 01:12:37;;;;;;;10.13;4.25;;;;;;;11.78;36.57;98439.00;4983985;28;20070;-39
2022/05/12 01:15:03;;;;;;;11.05;5.70;;;;;;;11.80;36.92;98435.38;4973820;28;20410;-40
2022/05/12 01:17:29;;;;;;;14.90;4.43;;;;;;;11.78;37.06;98433.78;4991525;28;20096;-39
2022/05/12 01:19:55;;;;;;;10.50;4.30;;;;;;;11.76;36.70;98435.66;4971453;28;20475;-40
2022/05/12 01:22:42;;;;;;;8.23;3.70;;;;;;;11.75;37.01;98423.56;4986220;28;20080;-39
2022/05/12 01:25:11;;;;;;;10.68;4.50;;;;;;;11.78;37.57;98425.97;4989888;28;20046;-39
2022/05/12 01:27:37;;;;;;;9.13;3.95;;;;;;;11.82;37.09;98422.28;4989223;28;20034;-40
2022/05/12 01:30:04;;;;;;;13.10;4.15;;;;;;;11.86;37.03;98418.56;4989956;28;20550;-39
2022/05/12 01:32:30;;;;;;;11.07;5.13;;;;;;;11.94;36.66;98413.72;4990856;28;20506;-39
2022/05/12 01:34:56;;;;;;;10.50;4.60;;;;;;;11.99;36.81;98414.28;4990387;28;20053;-40
2022/05/12 01:37:23;;;;;;;10.90;4.28;;;;;;;12.09;36.79;98411.97;4982632;28;20049;-40
2022/05/12 01:39:49;;;;;;;11.93;5.25;;;;;;;12.17;36.19;98422.75;4989835;28;20046;-40
2022/05/12 01:42:15;;;;;;;14.43;5.38;;;;;;;12.26;36.10;98420.41;4990435;28;20500;-39
2022/05/12 01:44:41;;;;;;;18.05;5.45;;;;;;;12.40;36.09;98427.41;4991077;28;20216;-40
2022/05/12 01:47:09;;;;;;;8.70;3.80;;;;;;;12.45;35.19;98424.53;4991145;28;20520;-40
2022/05/12 01:49:34;;;;;;;8.80;3.70;;;;;;;12.43;35.80;98423.75;4989999;28;20034;-41
2022/05/12 01:52:01;;;;;;;9.95;4.07;;;;;;;12.38;35.85;98429.25;4990861;28;20053;-40
2022/05/12 01:54:28;;;;;;;5.85;3.45;;;;;;;12.45;35.93;98430.56;4985724;28;20069;-40
2022/05/12 01:56:54;;;;;;;8.10;3.58;;;;;;;12.45;35.54;98420.16;4992204;28;20045;-39
2022/05/12 01:59:23;;;;;;;10.85;3.83;;;;;;;12.55;36.04;98429.06;4993933;28;20137;-40
2022/05/12 02:01:49;;;;;;;5.75;2.90;;;;;;;12.57;35.61;98429.78;4994576;28;20053;-40
2022/05/12 02:04:15;;;;;;;5.80;3.15;;;;;;;12.50;35.85;98419.84;4994396;28;20054;-40
2022/05/12 02:06:42;;;;;;;7.55;3.15;;;;;;;12.44;36.03;98410.66;4973806;28;20070;-38
2022/05/12 02:09:08;;;;;;;7.05;2.97;;;;;;;12.45;36.13;98424.53;4988247;28;20536;-41
2022/05/12 02:11:35;;;;;;;7.28;3.08;;;;;;;12.42;36.10;98425.53;4993316;28;20038;-40
2022/05/12 02:14:01;;;;;;;7.10;3.15;;;;;;;12.36;36.40;98410.25;4989536;28;20081;-40
2022/05/12 02:16:27;;;;;;;7.78;3.25;;;;;;;12.34;36.53;98413.91;4993403;28;20052;-40
2022/05/12 02:18:54;;;;;;;5.97;3.38;;;;;;;12.29;36.96;98417.66;4993464;28;20498;-39
2022/05/12 02:21:20;;;;;;;6.57;2.95;;;;;;;12.14;37.28;98408.13;4992857;28;20042;-40
2022/05/12 02:23:46;;;;;;;9.40;3.17;;;;;;;12.22;37.66;98426.75;4993359;28;20073;-39
2022/05/12 02:26:12;;;;;;;7.10;3.13;;;;;;;12.26;37.35;98428.25;4994091;28;20536;-39
2022/05/12 02:28:38;;;;;;;7.30;3.45;;;;;;;12.31;37.62;98425.34;4993386;28;20129;-39
2022/05/12 02:31:03;;;;;;;7.95;3.22;;;;;;;12.34;37.83;98421.72;4993182;28;20509;-39
2022/05/12 02:33:29;;;;;;;7.82;3.33;;;;;;;12.29;38.37;98415.03;4993727;28;20046;-41
2022/05/12 02:35:56;;;;;;;5.75;3.05;;;;;;;12.17;38.18;98397.53;4993829;28;20044;-40
2022/05/12 02:38:22;;;;;;;11.38;3.92;;;;;;;12.23;38.39;98404.16;4980550;28;20051;-39
2022/05/12 02:40:48;;;;;;;9.05;4.13;;;;;;;12.20;38.90;98412.13;4997848;28;20430;-39
2022/05/12 02:43:25;;;;;;;8.98;3.88;;;;;;;12.17;38.77;98417.53;4991266;28;20048;-41
2022/05/12 02:46:17;;;;;;;6.03;3.28;;;;;;;12.19;39.30;98419.16;4994264;28;20501;-40
2022/05/12 02:48:45;;;;;;;6.63;3.03;;;;;;;12.14;39.48;98420.34;4987539;28;20097;-39
2022/05/12 02:51:12;;;;;;;10.35;3.47;;;;;;;12.06;39.61;98399.97;4974790;28;20054;-40
2022/05/12 02:53:38;;;;;;;6.75;3.65;;;;;;;12.13;39.55;98409.09;4987869;28;20054;-40
2022/05/12 02:56:04;;;;;;;7.10;3.58;;;;;;;12.13;39.66;98414.31;4993549;28;20042;-39
2022/05/12 02:58:30;;;;;;;6.65;3.60;;;;;;;12.03;40.13;98396.72;4975483;28;20039;-40
2022/05/12 03:00:56;;;;;;;7.07;3.55;;;;;;;12.07;40.09;98417.28;4974613;28;20047;-39
2022/05/12 03:03:22;;;;;;;8.63;3.55;;;;;;;12.08;40.00;98411.13;4986736;28;20060;-39
2022/05/12 03:05:51;;;;;;;8.48;4.07;;;;;;;12.07;40.55;98416.44;4993505;28;20045;-39
2022/05/12 03:08:17;;;;;;;8.63;3.70;;;;;;;12.09;40.12;98418.00;4991429;28;20041;-39
2022/05/12 03:10:43;;;;;;;8.35;3.75;;;;;;;12.16;40.25;98411.50;4994047;28;20048;-40
2022/05/12 03:13:08;;;;;;;6.70;3.67;;;;;;;12.22;40.41;98416.34;4989066;28;20042;-40
2022/05/12 03:15:34;;;;;;;12.57;3.70;;;;;;;12.31;40.30;98402.72;4993180;28;20442;-39
2022/05/12 03:18:00;;;;;;;7.85;3.67;;;;;;;12.52;39.99;98403.16;4991668;28;20046;-40
2022/05/12 03:20:27;;;;;;;8.70;3.50;;;;;;;12.66;39.77;98410.97;4993395;28;20042;-40
2022/05/12 03:22:53;;;;;;;7.95;3.67;;;;;;;12.73;40.03;98401.81;4993340;28;20038;-40
2022/05/12 03:25:20;;;;;;;8.85;3.75;;;;;;;12.57;40.38;98397.66;4993020;28;20114;-39
2022/05/12 03:27:46;;;;;;;8.20;4.32;;;;;;;12.57;40.27;98392.44;4992899;28;20042;-40
2022/05/12 03:30:16;;;;;;;10.32;3.90;;;;;;;12.61;40.61;98388.75;4993677;28;20054;-40
2022/05/12 03:32:42;;;;;;;8.00;3.72;;;;;;;12.73;40.21;98390.53;4993100;28;20042;-40
2022/05/12 03:35:09;;;;;;;7.97;3.90;;;;;;;12.90;40.01;98392.09;4992565;28;20042;-40
2022/05/12 03:37:36;;;;;;;12.90;4.32;;;;;;;12.84;40.40;98393.31;4982600;28;20047;-41
2022/05/12 03:40:05;;;;;;;8.43;4.00;;;;;;;12.82;40.15;98389.16;4992347;28;20042;-40
2022/05/12 03:42:30;;;;;;;9.02;4.38;;;;;;;12.78;40.47;98383.25;4979558;28;20061;-41
2022/05/12 03:44:59;;;;;;;7.40;3.80;;;;;;;12.77;40.62;98396.44;4992861;28;20490;-39
2022/05/12 03:47:33;;;;;;;7.60;3.72;;;;;;;12.86;40.39;98390.63;4992254;28;20057;-41
2022/05/12 03:50:03;;;;;;;9.38;3.55;;;;;;;12.80;40.72;98388.38;4992734;28;20049;-40
2022/05/12 03:52:30;;;;;;;9.07;4.03;;;;;;;12.70;40.84;98390.75;4991897;28;20058;-40
2022/05/12 03:54:56;;;;;;;10.10;4.35;;;;;;;12.76;40.93;98397.34;4992195;28;20041;-39
2022/05/12 03:57:23;;;;;;;7.97;4.30;;;;;;;12.71;40.72;98395.03;4992336;28;20125;-39
2022/05/12 03:59:50;;;;;;;12.52;3.90;;;;;;;12.68;41.15;98411.69;4991630;28;20093;-40
2022/05/12 04:02:18;;;;;;;9.77;3.85;;;;;;;12.65;41.64;98398.03;4988883;28;20045;-41
2022/05/12 04:04:46;;;;;;;8.20;4.07;;;;;;;12.70;41.26;98403.78;4991256;28;20496;-41
2022/05/12 04:07:13;;;;;;;7.97;4.10;;;;;;;12.76;41.15;98399.97;4991512;28;20819;-40
2022/05/12 04:09:39;;;;;;;13.27;3.85;;;;;;;12.91;41.15;98399.81;4991191;28;20034;-41
2022/05/12 04:12:06;;;;;;;7.53;3.75;;;;;;;13.00;41.27;98391.38;4991829;28;20547;-41
2022/05/12 04:14:32;;;;;;;9.50;4.00;;;;;;;13.07;40.96;98392.69;4991042;28;20125;-39
2022/05/12 04:17:01;;;;;;;7.47;3.50;;;;;;;13.14;41.30;98396.56;4991470;28;20034;-40
2022/05/12 04:19:28;;;;;;;11.88;4.22;;;;;;;13.20;41.11;98387.50;4990530;28;20045;-40
2022/05/12 04:21:54;;;;;;;12.55;3.85;;;;;;;13.36;41.06;98387.34;4991666;28;20056;-39
2022/05/12 04:24:19;;;;;;;7.30;3.33;;;;;;;13.49;40.91;98388.22;4991579;28;20133;-40
2022/05/12 04:26:46;;;;;;;7.70;3.47;;;;;;;13.44;40.80;98375.47;4991558;28;20046;-40
2022/05/12 04:29:12;;;;;;;10.40;3.55;;;;;;;13.40;40.93;98384.41;4992197;28;20760;-39
2022/05/12 04:31:38;;;;;;;12.95;4.07;;;;;;;13.44;41.08;98382.47;4991607;28;20070;-40
2022/05/12 04:36:49;;;;;;;11.38;3.28;;;;;;;13.75;40.64;98378.63;4988596;28;20050;-40
2022/05/12 04:39:15;;;;;;;6.60;3.28;;;;;;;13.93;40.54;98364.28;4985564;28;20137;-40
2022/05/12 04:41:41;;;;;;;5.82;3.50;;;;;;;13.97;40.58;98368.38;4991360;28;20059;-41
2022/05/12 04:44:07;;;;;;;7.28;3.70;;;;;;;14.09;40.45;98366.66;4991405;28;20053;-39
2022/05/12 04:46:34;;;;;;;16.50;3.75;;;;;;;14.19;40.38;98358.06;4991886;28;20038;-41
2022/05/12 04:49:01;;;;;;;11.32;3.60;;;;;;;14.31;40.30;98364.22;4991459;28;20034;-40
2022/05/12 04:51:27;;;;;;;9.05;3.70;;;;;;;14.29;40.43;98353.03;4970973;28;20545;-40
2022/05/12 04:53:53;;;;;;;11.25;3.63;;;;;;;14.38;40.46;98355.06;4983224;28;20042;-40
2022/05/12 04:56:18;;;;;;;9.93;3.15;;;;;;;14.49;40.56;98352.50;4988933;28;20057;-40
2022/05/12 04:58:44;;;;;;;9.10;3.40;;;;;;;14.53;40.49;98347.88;4989972;28;20095;-40
2022/05/12 05:01:10;;;;;;;7.82;3.38;;;;;;;14.55;40.24;98335.56;4980338;28;20053;-40
2022/05/12 05:03:36;;;;;;;11.27;4.00;;;;;;;14.72;40.20;98349.06;4990912;28;20540;-42
2022/05/12 05:06:02;;;;;;;9.68;4.10;;;;;;;14.71;40.20;98344.78;4991478;28;20123;-41
2022/05/12 05:08:28;;;;;;;9.65;3.85;;;;;;;14.69;40.36;98324.91;4991014;28;20042;-40
2022/05/12 05:10:54;;;;;;;11.10;3.65;;;;;;;14.87;40.15;98339.25;4989595;28;20050;-40
2022/05/12 05:13:21;;;;;;;11.77;3.70;;;;;;;15.02;40.39;98335.50;4990085;28;20038;-40
2022/05/12 05:15:48;;;;;;;12.25;3.65;;;;;;;15.04;40.06;98327.56;4989423;28;20042;-41
2022/05/12 05:18:15;;;;;;;14.32;4.30;;;;;;;15.02;40.23;98305.91;4989930;28;20080;-42
2022/05/12 05:20:42;;;;;;;10.23;3.60;;;;;;;15.20;39.87;98323.69;4990735;28;20712;-42
2022/05/12 05:23:07;;;;;;;14.35;3.80;;;;;;;15.17;40.13;98323.94;4990869;28;20053;-40
2022/05/12 05:25:33;;;;;;;7.05;3.67;;;;;;;15.09;40.27;98326.25;4989174;28;20042;-41
2022/05/12 05:28:00;;;;;;;10.02;3.80;;;;;;;15.06;40.69;98331.75;4989961;28;20085;-41
2022/05/12 05:30:26;;;;;;;7.90;3.92;;;;;;;14.96;40.76;98327.31;4985137;28;20043;-41
2022/05/12 05:32:52;;;;;;;17.50;4.32;;;;;;;14.92;41.00;98328.44;4980363;28;20049;-40
2022/05/12 05:35:19;;;;;;;14.48;3.78;;;;;;;15.00;40.62;98324.34;4997445;28;20042;-40
2022/05/12 05:37:45;;;;;;;13.18;3.45;;;;;;;15.06;40.61;98329.13;4995842;28;20050;-40
2022/05/12 05:40:14;;;;;;;10.85;3.78;;;;;;;15.09;40.67;98318.41;4977017;28;20035;-41
2022/05/12 05:42:41;;;;;;;12.68;3.60;;;;;;;15.14;40.76;98329.38;4977994;28;20174;-40
2022/05/12 05:45:12;;;;;;;15.65;4.10;;;;;;;15.28;40.41;98310.84;4990941;28;20080;-41
2022/05/12 05:47:39;;;;;;;12.48;3.40;;;;;;;15.38;40.54;98333.75;4992488;28;20041;-41
2022/05/12 05:50:08;;;;;;;12.45;3.60;;;;;;;15.38;40.68;98336.34;4991827;28;20046;-41
2022/05/12 05:55:18;;;;;;;11.27;3.78;;;;;;;15.58;40.50;98318.22;4996219;28;20072;-40
2022/05/12 05:57:44;;;;;;;16.83;4.10;;;;;;;15.61;40.70;98320.59;4996811;28;20457;-40
2022/05/12 06:00:12;;;;;;;9.50;3.95;;;;;;;15.61;40.55;98322.38;4996163;28;20124;-41
2022/05/12 06:02:38;;;;;;;17.15;4.80;;;;;;;15.77;40.39;98303.69;4980431;28;20077;-38
2022/05/12 06:05:05;;;;;;;18.15;4.82;;;;;;;16.35;39.62;98326.16;4995406;28;20178;-41
2022/05/12 06:07:34;;;;;;;12.27;3.97;;;;;;;16.83;38.81;98322.25;4986822;28;20140;-40
2022/05/12 06:10:01;;;;;;;10.18;3.67;;;;;;;16.87;38.76;98322.84;4995927;28;20042;-40
2022/05/12 06:12:30;;;;;;;7.00;3.15;;;;;;;16.64;39.23;98321.25;4995619;28;20050;-40
2022/05/12 06:14:56;;;;;;;6.60;3.08;;;;;;;16.37;39.72;98314.63;4996306;28;20045;-41
2022/05/12 06:17:23;;;;;;;5.50;2.55;;;;;;;16.38;39.76;98305.75;4989946;28;20050;-40
2022/05/12 06:19:50;;;;;;;6.22;2.97;;;;;;;16.60;39.75;98299.66;4993653;28;20085;-40
2022/05/12 06:22:19;;;;;;;10.27;3.28;;;;;;;16.83;39.57;98295.19;4994993;28;20056;-41
2022/05/12 06:24:47;;;;;;;9.18;3.45;;;;;;;17.07;39.30;98289.69;4997005;28;20040;-41
2022/05/12 06:27:13;;;;;;;6.70;3.20;;;;;;;17.33;38.76;98289.19;4996863;28;20049;-40
2022/05/12 06:29:41;;;;;;;6.85;3.97;;;;;;;17.42;38.65;98282.34;4996691;28;20034;-40
2022/05/12 06:32:07;;;;;;;6.32;2.97;;;;;;;17.86;38.35;98285.59;4997080;28;20046;-41
2022/05/12 06:34:34;;;;;;;9.40;3.30;;;;;;;18.55;37.12;98284.72;4996241;28;20046;-41
2022/05/12 06:37:00;;;;;;;8.50;3.10;;;;;;;19.22;35.94;98278.59;4993323;28;20417;-41
2022/05/12 06:39:26;;;;;;;8.88;3.25;;;;;;;20.30;34.35;98269.22;4961057;28;20043;-41
2022/05/12 06:41:52;;;;;;;8.73;3.15;;;;;;;20.99;33.68;98279.16;4970073;28;20429;-40
2022/05/12 06:44:19;;;;;;;6.60;2.60;;;;;;;20.88;33.10;98268.84;4992274;28;20061;-41
2022/05/12 06:46:45;;;;;;;8.57;3.03;;;;;;;20.79;33.50;98271.53;4992981;28;20042;-41
2022/05/12 06:49:10;;;;;;;8.02;2.92;;;;;;;21.02;33.37;98273.56;4993288;28;20093;-41
2022/05/12 06:51:37;;;;;;;8.80;2.80;;;;;;;21.66;32.49;98282.16;4992614;28;20046;-40
2022/05/12 06:54:03;;;;;;;4.35;2.40;;;;;;;21.75;31.62;98260.88;4991535;28;20065;-40
2022/05/12 06:56:28;;;;;;;5.63;2.67;;;;;;;21.71;31.87;98269.28;4989928;28;20046;-40
2022/05/12 06:58:54;;;;;;;9.07;3.05;;;;;;;21.65;32.15;98262.81;4975780;28;20035;-41
2022/05/12 07:01:20;;;;;;;7.38;2.47;;;;;;;21.57;32.08;98262.75;4973243;28;20141;-40
2022/05/12 07:03:46;;;;;;;6.10;2.78;;;;;;;21.61;32.08;98261.47;4990929;28;20057;-41
2022/05/12 07:06:12;;;;;;;6.90;3.00;;;;;;;21.81;31.87;98260.25;4991167;28;20057;-41
2022/05/12 07:08:41;;;;;;;7.78;2.60;;;;;;;22.08;31.75;98258.41;4990473;28;20579;-41
2022/05/12 07:11:07;;;;;;;6.38;2.83;;;;;;;21.93;31.79;98258.13;4990249;28;20085;-41
2022/05/12 07:13:34;;;;;;;7.70;2.40;;;;;;;21.94;31.97;98252.72;4991707;28;20038;-40
2022/05/12 07:16:01;;;;;;;6.10;2.50;;;;;;;22.15;31.65;98248.81;4991051;28;20034;-41
2022/05/12 07:18:26;;;;;;;10.77;2.72;;;;;;;22.29;31.34;98237.63;4991058;28;20427;-42
2022/05/12 07:26:35;;;;;;;7.85;2.78;;;;;;;24.10;28.89;98231.84;4976170;28;20147;-39
2022/05/12 07:29:05;;;;;;;7.20;2.58;;;;;;;24.80;27.91;98224.63;4989320;28;20046;-41
2022/05/12 07:31:31;;;;;;;9.75;2.50;;;;;;;25.05;27.76;98229.78;4991343;28;20038;-40
2022/05/12 07:33:57;;;;;;;4.13;2.53;;;;;;;25.87;26.86;98236.75;4974330;28;20502;-41
2022/05/12 07:36:25;;;;;;;7.65;2.53;;;;;;;26.45;25.89;98227.03;4990850;28;20034;-40
2022/05/12 07:38:52;;;;;;;8.05;2.70;;;;;;;27.22;24.53;98230.66;4989571;28;20053;-40
2022/05/12 07:41:19;;;;;;;8.05;3.47;;;;;;;28.07;24.26;98217.00;4991021;28;20034;-40
2022/05/12 07:43:46;;;;;;;7.15;2.85;;;;;;;28.93;22.97;98218.09;4991851;28;20038;-41
2022/05/12 07:46:13;;;;;;;6.53;3.08;;;;;;;29.11;22.81;98205.94;4991256;28;20061;-42
2022/05/12 07:48:39;;;;;;;5.57;2.90;;;;;;;29.75;22.16;98206.91;4991629;28;20509;-41
2022/05/12 07:51:05;;;;;;;6.75;3.13;;;;;;;30.69;21.10;98211.66;4991643;28;20046;-40
2022/05/12 07:53:32;;;;;;;6.85;3.10;;;;;;;31.11;20.80;98202.06;4988216;28;20050;-41
2022/05/12 07:55:58;;;;;;;3.72;2.58;;;;;;;30.12;21.23;98201.84;4988137;28;20046;-42
2022/05/12 07:58:24;;;;;;;7.32;3.05;;;;;;;29.45;22.11;98203.06;4991098;28;20038;-42
2022/05/12 08:00:50;;;;;;;6.55;2.85;;;;;;;29.12;23.00;98218.31;4990610;28;20038;-41
2022/05/12 08:03:16;;;;;;;5.60;2.75;;;;;;;27.96;23.70;98201.53;4989864;28;20054;-43
2022/05/12 08:05:42;;;;;;;3.42;2.80;;;;;;;29.63;22.11;98191.69;4989121;28;20038;-42
2022/05/12 08:08:09;;;;;;;4.55;2.72;;;;;;;29.38;22.25;98203.06;4986674;28;20030;-42
2022/05/12 08:10:35;;;;;;;6.75;2.40;;;;;;;28.47;23.16;98164.50;4990014;28;20053;-43
2022/05/12 08:13:00;;;;;;;3.97;2.40;;;;;;;28.34;23.54;98175.19;4988850;28;20045;-42
2022/05/12 08:15:26;;;;;;;6.47;2.65;;;;;;;28.35;23.64;98168.81;4990664;28;20140;-40
2022/05/12 08:17:53;;;;;;;7.00;2.70;;;;;;;28.13;24.03;98178.84;4986918;28;20041;-40
2022/05/12 08:20:19;;;;;;;9.55;3.00;;;;;;;28.34;23.84;98185.88;4989000;28;20734;-39
2022/05/12 08:22:45;;;;;;;9.52;2.95;;;;;;;28.70;23.90;98158.78;4989412;28;20047;-41
2022/05/12 08:25:11;;;;;;;6.65;2.35;;;;;;;29.24;23.44;98160.44;4982605;28;20035;-40
2022/05/12 08:27:37;;;;;;;7.35;2.45;;;;;;;27.79;25.25;98152.19;4990194;28;20046;-41
2022/05/12 08:30:06;;;;;;;6.97;2.45;;;;;;;26.23;27.16;98164.88;4990149;28;20045;-40
2022/05/12 08:32:32;;;;;;;5.10;2.47;;;;;;;25.23;28.60;98171.72;4989036;28;20038;-40
2022/05/12 08:34:57;;;;;;;4.65;2.65;;;;;;;24.32;30.21;98147.94;4989213;28;20064;-40
2022/05/12 08:37:23;;;;;;;8.07;2.63;;;;;;;24.20;30.59;98134.22;4990307;28;20042;-41
2022/05/12 08:39:49;;;;;;;6.40;3.08;;;;;;;25.95;28.54;98131.97;4987819;28;20042;-42
2022/05/12 08:42:41;;;;;;;6.95;2.80;;;;;;;27.15;27.50;98133.72;4988238;28;20046;-40
2022/05/12 08:45:09;;;;;;;4.85;2.28;;;;;;;27.60;26.73;98127.00;5000576;28;20066;-41
2022/05/12 08:47:44;;;;;;;8.00;2.60;;;;;;;26.47;27.89;98137.88;4956610;28;20046;-41
2022/05/12 08:50:17;;;;;;;6.90;3.38;;;;;;;25.60;29.44;98145.06;4988446;28;20286;-39
2022/05/12 08:52:50;;;;;;;4.60;3.13;;;;;;;25.73;29.37;98141.75;4970844;28;20034;-41
2022/05/12 08:55:25;;;;;;;9.85;3.33;;;;;;;26.83;28.09;98134.28;4987959;28;20038;-45
2022/05/12 08:57:57;;;;;;;8.45;3.95;;;;;;;27.42;27.43;98140.06;4988288;28;20057;-39
2022/05/12 09:00:25;;;;;;;5.32;3.30;;;;;;;28.81;25.81;98152.03;4989487;28;20042;-39
2022/05/12 09:02:57;;;;;;;10.32;3.33;;;;;;;29.12;25.15;98138.00;4988031;28;20046;-41
2022/05/12 09:05:27;;;;;;;6.50;3.42;;;;;;;28.32;25.77;98129.09;4986259;28;20074;-41
2022/05/12 09:08:12;;;;;;;8.93;3.10;;;;;;;27.80;26.58;98119.91;4989144;28;20048;-41
2022/05/12 09:10:59;;;;;;;7.35;3.25;;;;;;;27.97;26.31;98109.69;4988417;28;20053;-41
2022/05/12 09:13:27;;;;;;;5.75;2.47;;;;;;;29.26;24.20;98107.50;4989518;28;20065;-41
2022/05/12 09:16:02;;;;;;;8.05;2.97;;;;;;;29.86;23.55;98101.75;4987336;28;20046;-42
2022/05/12 09:18:31;;;;;;;5.10;3.20;;;;;;;30.53;23.17;98129.84;4988640;28;20042;-40
2022/05/12 09:21:03;;;;;;;7.45;3.40;;;;;;;30.84;23.15;98115.56;4985175;28;20034;-39
2022/05/12 09:23:29;;;;;;;4.10;2.75;;;;;;;30.18;23.80;98104.47;4983960;28;20042;-42
2022/05/12 09:25:54;;;;;;;6.30;2.85;;;;;;;28.43;26.04;98101.78;4988549;28;20389;-41
2022/05/12 09:28:40;;;;;;;8.55;3.78;;;;;;;29.40;25.50;98095.75;4984758;28;20070;-39
2022/05/12 09:31:08;;;;;;;7.82;3.15;;;;;;;30.39;24.10;98106.00;4987745;28;20042;-40
2022/05/12 09:33:35;;;;;;;;;;;;;;;29.06;24.89;98088.81;4988534;28;20034;-42
2022/05/12 09:36:05;;;;;;;7.72;2.60;;;;;;;29.82;23.76;98097.03;4970592;28;19929;-41
2022/05/12 09:38:39;;;;;;;13.45;4.05;;;;;;;30.31;23.40;98091.78;4988028;28;20044;-41
2022/05/12 09:41:21;;;;;;;6.07;2.85;;;;;;;32.10;20.96;98094.31;4985960;28;20044;-40
2022/05/12 09:43:52;;;;;;;3.33;2.45;;;;;;;31.75;21.05;98094.19;4984058;28;20042;-41
2022/05/12 09:46:18;;;;;;;6.10;2.72;;;;;;;32.48;20.49;98102.06;4985549;28;20204;-41
2022/05/12 09:48:47;;;;;;;5.65;2.35;;;;;;;32.33;20.03;98091.72;4984063;28;20129;-43
2022/05/12 09:51:21;;;;;;;5.72;2.30;;;;;;;32.12;19.03;98094.13;4984020;28;20453;-42
2022/05/12 09:53:49;;;;;;;4.53;2.40;;;;;;;31.95;19.04;98088.53;4987853;28;20053;-42
2022/05/12 09:56:28;;;;;;;7.60;2.65;;;;;;;32.33;18.64;98086.34;4988302;28;20042;-41
2022/05/12 09:59:13;;;;;;;2.75;2.22;;;;;;;32.49;18.67;98086.72;4988666;28;20046;-41
2022/05/12 10:01:55;;;;;;;6.00;2.72;;;;;;;32.88;18.82;98079.88;4986650;28;20125;-41
2022/05/12 10:10:23;;;;;;;8.40;2.63;;;;;;;34.48;17.86;98069.94;4988390;28;20042;-40
2022/05/12 10:12:56;;;;;;;4.85;2.90;;;;;;;33.77;18.52;98052.44;4987734;28;20057;-41
2022/05/12 10:15:28;;;;;;;3.97;2.97;;;;;;;34.69;17.90;98068.41;4985936;28;20045;-43
2022/05/12 10:18:00;;;;;;;6.22;3.33;;;;;;;34.93;18.03;98052.81;4988669;28;20046;-41
2022/05/12 10:20:28;;;;;;;6.47;3.30;;;;;;;34.99;17.80;98058.06;4989400;28;20050;-41
2022/05/12 10:22:59;;;;;;;5.63;3.47;;;;;;;34.47;18.32;98045.88;4990291;28;20126;-42
2022/05/12 10:25:57;;;;;;;3.63;2.90;;;;;;;35.20;17.84;98042.97;4988387;28;20042;-43
2022/05/12 10:28:51;;;;;;;5.60;2.88;;;;;;;35.22;17.63;98038.13;4989788;28;20042;-42
2022/05/12 10:31:35;;;;;;;5.00;3.60;;;;;;;34.03;18.57;98027.59;4987876;28;20046;-41
2022/05/12 10:34:23;;;;;;;6.60;3.10;;;;;;;33.96;18.31;98021.53;4987554;28;20232;-41
2022/05/12 10:37:06;;;;;;;;;;;;;;;34.37;18.41;98024.94;4982684;28;20093;-42
2022/05/12 10:39:32;;;;;;;3.75;2.60;;;;;;;34.05;18.55;98027.34;4987119;28;19926;-40
2022/05/12 10:42:22;;;;;;;5.78;3.13;;;;;;;33.80;18.80;98022.34;4990819;28;20042;-42
2022/05/12 10:44:59;;;;;;;5.00;2.97;;;;;;;33.94;18.63;98002.09;4990045;28;20065;-49
2022/05/12 10:47:28;;;;;;;6.00;2.63;;;;;;;34.13;18.83;98007.22;4987599;28;20070;-40
2022/05/12 10:50:25;;;;;;;3.45;2.70;;;;;;;32.90;19.96;98010.47;4991571;28;20030;-40
2022/05/12 10:53:19;;;;;;;4.78;3.10;;;;;;;33.49;19.70;98007.44;5008143;28;20093;-43
2022/05/12 10:56:16;;;;;;;4.18;3.13;;;;;;;33.55;19.80;97989.47;4988674;28;20132;-41
2022/05/12 10:58:51;;;;;;;3.78;2.97;;;;;;;33.90;19.45;97983.94;4990952;28;20577;-41
2022/05/12 11:01:26;;;;;;;4.38;3.03;;;;;;;34.03;19.15;97994.41;4989666;28;20490;-42
2022/05/12 11:04:03;;;;;;;4.63;3.15;;;;;;;33.33;20.05;97991.19;4989602;28;20136;-41
2022/05/12 11:06:39;;;;;;;5.07;2.90;;;;;;;32.75;20.39;98008.25;4988687;28;20178;-38
2022/05/12 11:09:29;;;;;;;5.32;3.10;;;;;;;32.28;21.35;97989.38;4981134;28;20332;-39
2022/05/12 11:12:00;;;;;;;6.18;3.28;;;;;;;32.57;20.98;97967.97;4984715;28;20038;-41
2022/05/12 11:14:40;;;;;;;4.85;2.75;;;;;;;31.55;22.09;97980.75;4973850;28;20065;-41
2022/05/12 11:17:08;;;;;;;5.53;2.53;;;;;;;30.62;23.21;97978.28;4988234;28;20053;-42
2022/05/12 11:19:35;;;;;;;6.75;2.88;;;;;;;30.47;23.18;97980.50;4991472;28;20042;-42
2022/05/12 11:22:12;;;;;;;5.70;2.85;;;;;;;29.70;23.95;97970.13;4991291;28;20588;-43
2022/05/12 11:24:49;;;;;;;6.03;2.97;;;;;;;29.64;24.22;97952.25;4973101;28;20494;-41
2022/05/12 11:27:46;;;;;;;6.23;3.20;;;;;;;30.34;23.21;97951.13;4986987;28;20034;-42
2022/05/12 11:30:24;;;;;;;5.03;2.60;;;;;;;30.12;23.49;97937.28;4986863;28;20304;-43
2022/05/12 11:32:56;;;;;;;4.90;2.55;;;;;;;30.14;23.35;97966.56;4972430;28;20053;-41
2022/05/12 11:35:26;;;;;;;8.30;2.50;;;;;;;29.98;23.28;97938.44;4987869;28;20034;-40
2022/05/12 11:37:55;;;;;;;4.57;2.10;;;;;;;29.35;23.12;97951.81;4988583;28;20104;-41
2022/05/12 11:40:44;;;;;;;5.15;2.20;;;;;;;28.35;23.96;97936.25;4990054;28;20046;-40
2022/05/12 11:46:25;;;;;;;3.83;2.45;;;;;;;29.32;23.40;97925.44;4988723;28;20034;-40
2022/05/12 11:48:58;;;;;;;3.33;2.45;;;;;;;30.38;22.65;97924.66;4986632;28;20092;-41
2022/05/12 11:51:38;;;;;;;6.45;2.28;;;;;;;30.30;22.40;97912.38;4986255;28;20148;-40
2022/05/12 11:54:09;;;;;;;5.32;2.55;;;;;;;29.45;23.45;97921.88;4990439;28;20531;-40
2022/05/12 11:56:45;;;;;;;4.60;2.60;;;;;;;28.59;24.99;97916.03;4973304;28;20038;-41
2022/05/12 11:59:40;;;;;;;8.45;2.95;;;;;;;28.38;25.45;97906.41;4984600;28;20140;-42
2022/05/12 12:02:28;;;;;;;6.00;2.60;;;;;;;28.45;25.46;97911.75;4970979;28;20145;-42